createdAt,value
2023-01-09T00:00:14.515Z,24.13
2023-01-09T00:03:32.449Z,23.95
2023-01-09T00:06:34.919Z,23.20
2023-01-09T00:09:54.665Z,21.30
2023-01-09T00:12:59.325Z,21.92
2023-01-09T00:16:15.446Z,23.40
2023-01-09T00:19:23.907Z,20.30
2023-01-09T00:22:38.330Z,23.55
2023-01-09T00:25:52.667Z,23.10
2023-01-09T00:29:36.786Z,21.33
2023-01-09T00:33:15.632Z,19.97
2023-01-09T00:37:07.982Z,21.30
2023-01-09T00:40:24.421Z,24.42
2023-01-09T00:51:22.556Z,20.80
2023-01-09T00:59:00.456Z,19.90
2023-01-09T01:02:28.459Z,24.27
2023-01-09T01:06:02.430Z,17.83
2023-01-09T01:09:23.491Z,19.53
2023-01-09T01:12:38.800Z,18.87
2023-01-09T01:16:04.500Z,18.75
2023-01-09T01:19:33.361Z,22.60
2023-01-09T01:39:33.667Z,16.95
2023-01-09T01:58:45.543Z,17.35
2023-01-09T02:02:32.669Z,20.90
2023-01-09T02:09:48.018Z,20.25
2023-01-09T02:13:19.879Z,16.17
2023-01-09T02:17:18.405Z,16.42
2023-01-09T02:28:29.930Z,16.30
2023-01-09T02:32:02.713Z,16.27
2023-01-09T02:36:05.544Z,16.20
2023-01-09T02:42:58.579Z,17.93
2023-01-09T02:46:29.522Z,17.10
2023-01-09T02:50:10.493Z,16.87
2023-01-09T02:57:53.595Z,17.27
2023-01-09T03:01:17.338Z,20.47
2023-01-09T03:08:29.523Z,16.70
2023-01-09T03:11:44.116Z,17.35
2023-01-09T03:15:51.240Z,17.35
2023-01-09T03:19:27.450Z,17.20
2023-01-09T03:22:29.421Z,16.25
2023-01-09T03:29:37.772Z,16.70
2023-01-09T03:37:23.588Z,19.77
2023-01-09T03:40:38.896Z,16.85
2023-01-09T03:48:19.494Z,17.08
2023-01-09T03:51:28.385Z,17.45
2023-01-09T03:59:22.664Z,17.25
2023-01-09T04:02:35.188Z,16.37
2023-01-09T04:05:45.727Z,18.83
2023-01-09T04:08:54.094Z,17.05
2023-01-09T04:12:02.480Z,17.77
2023-01-09T04:15:44.498Z,15.25
2023-01-09T04:18:53.025Z,16.87
2023-01-09T04:22:09.855Z,18.23
2023-01-09T04:25:34.998Z,16.92
2023-01-09T04:29:06.499Z,18.63
2023-01-09T04:36:19.341Z,17.12
2023-01-09T04:39:54.412Z,18.45
2023-01-09T04:56:08.374Z,19.40
2023-01-09T05:00:11.425Z,15.60
2023-01-09T05:07:17.867Z,18.27
2023-01-09T05:11:15.886Z,19.08
2023-01-09T05:31:41.627Z,21.00
2023-01-09T05:38:49.580Z,17.95
2023-01-09T05:42:25.179Z,20.33
2023-01-09T05:57:01.581Z,19.83
2023-01-09T06:00:12.940Z,20.92
2023-01-09T06:07:32.468Z,21.60
2023-01-09T06:11:10.533Z,19.85
2023-01-09T06:18:26.481Z,17.67
2023-01-09T06:21:41.529Z,16.90
2023-01-09T06:33:01.262Z,16.63
2023-01-09T06:36:36.922Z,20.62
2023-01-09T06:39:54.227Z,19.98
2023-01-09T06:47:17.476Z,15.93
2023-01-09T06:50:25.909Z,17.90
2023-01-09T06:57:57.282Z,18.40
2023-01-09T07:05:54.767Z,17.67
2023-01-09T07:09:06.009Z,19.43
2023-01-09T07:32:05.032Z,17.58
2023-01-09T10:35:06.682Z,22.62
2023-01-09T10:54:45.624Z,35.38
2023-01-09T13:03:03.614Z,27.20
2023-01-09T15:25:45.450Z,29.40
2023-01-09T15:34:12.783Z,27.50
2023-01-09T15:42:14.080Z,33.90
2023-01-09T15:49:49.232Z,29.63
2023-01-09T15:53:39.148Z,27.52
2023-01-09T16:16:34.353Z,29.10
2023-01-09T16:23:58.777Z,30.03
2023-01-09T16:27:40.860Z,33.20
2023-01-09T19:17:41.319Z,23.50
2023-01-09T19:20:51.089Z,25.90
2023-01-09T19:24:07.233Z,23.42
2023-01-09T19:31:37.301Z,23.47
2023-01-09T19:34:52.182Z,20.10
2023-01-09T19:38:00.811Z,22.25
2023-01-09T19:41:20.216Z,22.13
2023-01-09T19:44:29.006Z,21.17
2023-01-09T19:47:40.208Z,19.97
2023-01-09T19:50:49.115Z,23.58
2023-01-09T19:54:03.193Z,22.20
2023-01-09T19:57:11.789Z,23.15
2023-01-09T20:00:21.277Z,18.92
2023-01-09T20:03:29.856Z,16.97
2023-01-09T20:06:40.320Z,22.75
2023-01-09T20:09:53.068Z,19.90
2023-01-09T20:13:02.202Z,21.95
2023-01-09T20:16:23.282Z,22.73
2023-01-09T20:19:42.289Z,20.17
2023-01-09T20:23:38.217Z,18.92
2023-01-09T20:26:40.179Z,18.37
2023-01-09T20:29:55.249Z,20.42
2023-01-09T20:32:59.353Z,20.15
2023-01-09T20:36:17.257Z,23.07
2023-01-09T20:39:21.255Z,19.45
2023-01-09T20:42:41.226Z,22.23
2023-01-09T20:45:43.279Z,16.00
2023-01-09T20:53:01.243Z,18.83
2023-01-09T20:56:16.245Z,17.73
2023-01-09T20:59:28.228Z,17.50
2023-01-09T21:02:44.561Z,18.33
2023-01-09T21:06:02.241Z,20.62
2023-01-09T21:09:26.315Z,17.90
2023-01-09T21:12:30.391Z,19.25
2023-01-09T21:15:48.725Z,16.80
2023-01-09T21:23:10.231Z,19.98
2023-01-09T21:26:29.302Z,20.57
2023-01-09T21:29:39.008Z,17.48
2023-01-09T21:32:47.212Z,16.77
2023-01-09T21:36:12.282Z,20.25
2023-01-09T21:39:35.629Z,17.98
2023-01-09T21:42:37.366Z,19.67
2023-01-09T21:45:57.316Z,19.65
2023-01-09T21:49:06.741Z,18.12
2023-01-09T21:52:16.284Z,20.12
2023-01-09T21:55:31.356Z,21.17
2023-01-09T21:58:33.323Z,17.03
2023-01-09T22:01:50.290Z,18.30
2023-01-09T22:04:58.254Z,21.05
2023-01-09T22:08:07.001Z,18.90
2023-01-09T22:11:16.290Z,19.00
2023-01-09T22:14:25.245Z,21.07
2023-01-09T22:17:42.305Z,17.73
2023-01-09T22:20:52.353Z,18.12
2023-01-09T22:24:02.013Z,17.90
2023-01-09T22:27:10.235Z,18.12
2023-01-09T22:30:25.221Z,23.30
2023-01-09T22:33:40.328Z,16.27
2023-01-09T22:36:55.313Z,18.27
2023-01-09T22:39:58.209Z,16.73
2023-01-09T22:43:13.307Z,16.67
2023-01-09T22:46:15.549Z,16.10
2023-01-09T22:49:33.551Z,16.30
2023-01-09T22:52:43.035Z,15.80
2023-01-09T22:56:09.261Z,14.95
2023-01-09T22:59:20.146Z,13.27
2023-01-09T23:02:29.629Z,13.83
2023-01-09T23:05:39.422Z,15.52
2023-01-09T23:08:56.201Z,13.10
2023-01-09T23:12:07.363Z,12.93
2023-01-09T23:15:15.829Z,15.02
2023-01-09T23:18:24.237Z,13.73
2023-01-09T23:21:32.958Z,13.52
2023-01-09T23:24:41.258Z,14.82
2023-01-09T23:27:52.285Z,13.18
2023-01-09T23:31:01.384Z,13.88
2023-01-09T23:34:18.635Z,16.43
2023-01-09T23:37:33.256Z,15.90
2023-01-09T23:40:36.169Z,15.35
2023-01-09T23:43:52.369Z,13.98
2023-01-09T23:46:54.283Z,13.98
2023-01-09T23:50:09.268Z,14.17
2023-01-09T23:53:11.740Z,14.18
2023-01-09T23:56:26.229Z,15.02
2023-01-09T23:59:27.947Z,13.68
